Skye — WDG4178 — position and weather

sailwx.info

Track history (hours):
 
Tides and Currents Weather Stations Pressure Air Temp Water Temp Dewpoint Dewpoint Depression Visibility Wind Speed Wind Dir Waves Ship Positions

Skye

Owner: Worthington, Ralph, New York, NY. More information available from US FCC via Universal Licensing System and Coast Guard Vessel Documentation Center.

Last reported at 2016-May-10 12:32 UTC. Time now 2016-May-24 08:00 UTC.
Position N 37°56' E 023°39'.
Warning: this ship's position is 13 days out of date.

Length 13 m.

Type: Sailing vessel. MMSI: 367533820.

Date/timePositionNaut miles runAvg speedWind from/ knotsBaromVisibWave heightAir tempDewpointWater temp
2016-May-10 12:32N 37°56' E 023°39'0 0.0
2016-May-10 11:32N 37°56' E 023°39'0 0.0
2016-May-10 10:29N 37°56' E 023°39'0 0.0
2016-May-09 11:31N 37°56' E 023°39'0 0.1
2016-May-09 10:33N 37°56' E 023°39'4 3.9
2016-May-09 09:33N 37°52' E 023°41'1 1.0
2016-May-09 08:33N 37°51' E 023°41'4 4.4
2016-May-09 07:33N 37°56' E 023°39'1 0.6
2016-May-09 06:31N 37°56' E 023°39'0 0.0
2016-May-09 05:31N 37°56' E 023°39'0 0.0
2016-May-09 04:31N 37°56' E 023°39'0 0.0
2016-May-09 03:31N 37°56' E 023°39'0 0.0
2016-May-09 02:31N 37°56' E 023°39'0 0.0
2016-May-09 01:31N 37°56' E 023°39'0 0.0
2016-May-09 00:31N 37°56' E 023°39'0 0.0
2016-May-08 23:31N 37°56' E 023°39'0 0.0
2016-May-08 22:31N 37°56' E 023°39'0 0.0
2016-May-08 21:31N 37°56' E 023°39'0 0.0
2016-May-08 20:31N 37°56' E 023°39'0 0.0
2016-May-08 19:31N 37°56' E 023°39'0 0.0
2016-May-08 18:31N 37°56' E 023°39'0 0.0
2016-May-08 17:31N 37°56' E 023°39'0 0.0
2016-May-08 16:31N 37°56' E 023°39'0 0.0
2016-May-08 15:31N 37°56' E 023°39'0 0.0
2016-May-08 14:31N 37°56' E 023°39'0 0.0
2016-May-08 13:31N 37°56' E 023°39'0 0.0
2016-May-08 12:31N 37°56' E 023°39'0 0.0
2016-May-08 11:31N 37°56' E 023°39'0 0.0
2016-May-08 10:31N 37°56' E 023°39'0 0.0
2016-May-08 09:31N 37°56' E 023°39'0 0.0
2016-May-08 08:31N 37°56' E 023°39'0 0.0
2016-May-08 07:31N 37°56' E 023°39'0 0.0
2016-May-08 06:31N 37°56' E 023°39'0 0.0
2016-May-08 05:31N 37°56' E 023°39'0 0.0
2016-May-08 04:31N 37°56' E 023°39'0 0.0
2016-May-08 03:31N 37°56' E 023°39'0 0.0
2016-May-08 02:31N 37°56' E 023°39'0 0.0
2016-May-08 01:31N 37°56' E 023°39'0 0.0
2016-May-08 00:31N 37°56' E 023°39'0 0.0
2016-May-07 23:31N 37°56' E 023°39'0 0.0
2016-May-07 22:31N 37°56' E 023°39'0 0.0
2016-May-07 21:31N 37°56' E 023°39'0 0.0
2016-May-07 20:31N 37°56' E 023°39'0 0.0
2016-May-07 19:31N 37°56' E 023°39'0 0.0
2016-May-07 18:31N 37°56' E 023°39'0 0.0
2016-May-07 17:31N 37°56' E 023°39'0 0.0
2016-May-07 16:31N 37°56' E 023°39'0 0.0
2016-May-07 15:31N 37°56' E 023°39'0 0.0
2016-May-07 14:31N 37°56' E 023°39'0 0.0
2016-May-07 08:31N 37°56' E 023°39'1 0.9
2016-May-07 07:33N 37°55' E 023°38'6 6.0
2016-May-07 06:33N 37°52' E 023°32'6 6.2
2016-May-07 05:33N 37°47' E 023°27'3 0.1
2016-May-05 15:25N 37°44' E 023°26'2 2.5
2016-May-05 14:34N 37°43' E 023°23'0 0.0
2016-May-05 13:33N 37°43' E 023°23'0 0.0
2016-May-05 12:32N 37°43' E 023°23'  
Track history (hours):
 
Tides and Currents Weather Stations Pressure Air Temp Water Temp Dewpoint Dewpoint Depression Visibility Wind Speed Wind Dir Waves Ship Positions

Skye

Owner: Worthington, Ralph, New York, NY. More information available from US FCC via Universal Licensing System and Coast Guard Vessel Documentation Center.

Last reported at 2016-May-10 12:32 UTC. Time now 2016-May-24 08:00 UTC.
Position N 37°56' E 023°39'.
Warning: this ship's position is 13 days out of date.

Length 13 m.

Type: Sailing vessel. MMSI: 367533820.

Date/timePositionNaut miles runAvg speedWind from/ knotsBaromVisibWave heightAir tempDewpointWater temp
2016-May-10 12:32N 37°56' E 023°39'0 0.0
2016-May-10 11:32N 37°56' E 023°39'0 0.0
2016-May-10 10:29N 37°56' E 023°39'0 0.0
2016-May-09 11:31N 37°56' E 023°39'0 0.1
2016-May-09 10:33N 37°56' E 023°39'4 3.9
2016-May-09 09:33N 37°52' E 023°41'1 1.0
2016-May-09 08:33N 37°51' E 023°41'4 4.4
2016-May-09 07:33N 37°56' E 023°39'1 0.6
2016-May-09 06:31N 37°56' E 023°39'0 0.0
2016-May-09 05:31N 37°56' E 023°39'0 0.0
2016-May-09 04:31N 37°56' E 023°39'0 0.0
2016-May-09 03:31N 37°56' E 023°39'0 0.0
2016-May-09 02:31N 37°56' E 023°39'0 0.0
2016-May-09 01:31N 37°56' E 023°39'0 0.0
2016-May-09 00:31N 37°56' E 023°39'0 0.0
2016-May-08 23:31N 37°56' E 023°39'0 0.0
2016-May-08 22:31N 37°56' E 023°39'0 0.0
2016-May-08 21:31N 37°56' E 023°39'0 0.0
2016-May-08 20:31N 37°56' E 023°39'0 0.0
2016-May-08 19:31N 37°56' E 023°39'0 0.0
2016-May-08 18:31N 37°56' E 023°39'0 0.0
2016-May-08 17:31N 37°56' E 023°39'0 0.0
2016-May-08 16:31N 37°56' E 023°39'0 0.0
2016-May-08 15:31N 37°56' E 023°39'0 0.0
2016-May-08 14:31N 37°56' E 023°39'0 0.0
2016-May-08 13:31N 37°56' E 023°39'0 0.0
2016-May-08 12:31N 37°56' E 023°39'0 0.0
2016-May-08 11:31N 37°56' E 023°39'0 0.0
2016-May-08 10:31N 37°56' E 023°39'0 0.0
2016-May-08 09:31N 37°56' E 023°39'0 0.0
2016-May-08 08:31N 37°56' E 023°39'0 0.0
2016-May-08 07:31N 37°56' E 023°39'0 0.0
2016-May-08 06:31N 37°56' E 023°39'0 0.0
2016-May-08 05:31N 37°56' E 023°39'0 0.0
2016-May-08 04:31N 37°56' E 023°39'0 0.0
2016-May-08 03:31N 37°56' E 023°39'0 0.0
2016-May-08 02:31N 37°56' E 023°39'0 0.0
2016-May-08 01:31N 37°56' E 023°39'0 0.0
2016-May-08 00:31N 37°56' E 023°39'0 0.0
2016-May-07 23:31N 37°56' E 023°39'0 0.0
2016-May-07 22:31N 37°56' E 023°39'0 0.0
2016-May-07 21:31N 37°56' E 023°39'0 0.0
2016-May-07 20:31N 37°56' E 023°39'0 0.0
2016-May-07 19:31N 37°56' E 023°39'0 0.0
2016-May-07 18:31N 37°56' E 023°39'0 0.0
2016-May-07 17:31N 37°56' E 023°39'0 0.0
2016-May-07 16:31N 37°56' E 023°39'0 0.0
2016-May-07 15:31N 37°56' E 023°39'0 0.0
2016-May-07 14:31N 37°56' E 023°39'0 0.0
2016-May-07 08:31N 37°56' E 023°39'1 0.9
2016-May-07 07:33N 37°55' E 023°38'6 6.0
2016-May-07 06:33N 37°52' E 023°32'6 6.2
2016-May-07 05:33N 37°47' E 023°27'3 0.1
2016-May-05 15:25N 37°44' E 023°26'2 2.5
2016-May-05 14:34N 37°43' E 023°23'0 0.0
2016-May-05 13:33N 37°43' E 023°23'0 0.0
2016-May-05 12:32N 37°43' E 023°23'  

Dump ship's entire track history